sensor_id;sensor_type;location;lat;lon;timestamp;pressure;altitude;pressure_sealevel;temperature;humidity
16777;BME280;8505;49.456;8.164;2022-12-29T00:00:24;99075.69;;;11.15;75.52
16777;BME280;8505;49.456;8.164;2022-12-29T00:02:52;99090.81;;;11.21;75.44
16777;BME280;8505;49.456;8.164;2022-12-29T00:05:19;99081.94;;;11.08;76.22
16777;BME280;8505;49.456;8.164;2022-12-29T00:07:48;99100.91;;;11.11;76.60
16777;BME280;8505;49.456;8.164;2022-12-29T00:10:16;99084.22;;;11.11;77.00
16777;BME280;8505;49.456;8.164;2022-12-29T00:12:44;99089.19;;;10.99;77.85
16777;BME280;8505;49.456;8.164;2022-12-29T00:15:29;99081.63;;;10.96;78.15
16777;BME280;8505;49.456;8.164;2022-12-29T00:18:07;99067.38;;;10.97;78.06
16777;BME280;8505;49.456;8.164;2022-12-29T00:20:35;99064.91;;;10.95;77.72
16777;BME280;8505;49.456;8.164;2022-12-29T00:23:22;99074.31;;;10.98;77.25
16777;BME280;8505;49.456;8.164;2022-12-29T00:26:13;99074.94;;;11.00;77.04
16777;BME280;8505;49.456;8.164;2022-12-29T00:28:58;99075.50;;;10.95;77.36
16777;BME280;8505;49.456;8.164;2022-12-29T00:31:44;99087.63;;;11.05;76.78
16777;BME280;8505;49.456;8.164;2022-12-29T00:34:29;99066.44;;;11.05;77.01
16777;BME280;8505;49.456;8.164;2022-12-29T00:37:15;99085.16;;;11.03;77.17
16777;BME280;8505;49.456;8.164;2022-12-29T00:39:44;99079.63;;;10.98;77.55
16777;BME280;8505;49.456;8.164;2022-12-29T00:42:30;99076.41;;;11.03;77.59
16777;BME280;8505;49.456;8.164;2022-12-29T00:45:23;99085.09;;;10.97;78.09
16777;BME280;8505;49.456;8.164;2022-12-29T00:47:51;99094.22;;;10.94;78.27
16777;BME280;8505;49.456;8.164;2022-12-29T00:50:19;99078.81;;;10.98;78.24
16777;BME280;8505;49.456;8.164;2022-12-29T00:52:45;99081.28;;;11.06;77.75
16777;BME280;8505;49.456;8.164;2022-12-29T00:55:14;99079.88;;;11.03;78.22
16777;BME280;8505;49.456;8.164;2022-12-29T00:57:42;99087.63;;;11.05;78.33
16777;BME280;8505;49.456;8.164;2022-12-29T01:00:11;99080.63;;;10.97;78.85
16777;BME280;8505;49.456;8.164;2022-12-29T01:02:39;99079.56;;;10.91;79.63
16777;BME280;8505;49.456;8.164;2022-12-29T01:05:08;99078.50;;;10.86;80.50
16777;BME280;8505;49.456;8.164;2022-12-29T01:07:35;99059.88;;;10.79;81.03
16777;BME280;8505;49.456;8.164;2022-12-29T01:10:03;99064.16;;;10.80;81.27
16777;BME280;8505;49.456;8.164;2022-12-29T01:12:38;99065.19;;;10.79;81.11
16777;BME280;8505;49.456;8.164;2022-12-29T01:15:10;99062.19;;;10.89;80.27
16777;BME280;8505;49.456;8.164;2022-12-29T01:17:38;99066.50;;;10.90;80.48
16777;BME280;8505;49.456;8.164;2022-12-29T01:20:06;99063.22;;;10.88;80.69
16777;BME280;8505;49.456;8.164;2022-12-29T01:22:34;99056.31;;;10.93;79.90
16777;BME280;8505;49.456;8.164;2022-12-29T01:25:02;99045.19;;;10.98;79.83
16777;BME280;8505;49.456;8.164;2022-12-29T01:27:30;99045.72;;;10.93;79.75
16777;BME280;8505;49.456;8.164;2022-12-29T01:29:59;99060.81;;;10.93;79.80
16777;BME280;8505;49.456;8.164;2022-12-29T01:32:26;99045.78;;;11.00;79.21
16777;BME280;8505;49.456;8.164;2022-12-29T01:34:54;99046.03;;;11.05;78.53
16777;BME280;8505;49.456;8.164;2022-12-29T01:37:22;99058.09;;;11.08;78.47
16777;BME280;8505;49.456;8.164;2022-12-29T01:39:49;99036.06;;;11.07;78.32
16777;BME280;8505;49.456;8.164;2022-12-29T01:42:19;99036.06;;;11.07;78.27
16777;BME280;8505;49.456;8.164;2022-12-29T01:44:53;99049.97;;;11.09;78.31
16777;BME280;8505;49.456;8.164;2022-12-29T01:47:28;99034.66;;;11.11;78.18
16777;BME280;8505;49.456;8.164;2022-12-29T01:49:58;99058.16;;;11.14;77.90
16777;BME280;8505;49.456;8.164;2022-12-29T01:52:30;99046.97;;;11.19;77.33
16777;BME280;8505;49.456;8.164;2022-12-29T01:55:01;99063.91;;;11.24;76.79
16777;BME280;8505;49.456;8.164;2022-12-29T01:57:32;99013.34;;;11.19;76.96
16777;BME280;8505;49.456;8.164;2022-12-29T02:00:03;99045.78;;;11.21;76.92
16777;BME280;8505;49.456;8.164;2022-12-29T02:02:33;99055.97;;;11.24;76.63
16777;BME280;8505;49.456;8.164;2022-12-29T02:05:07;99066.03;;;11.29;76.16
16777;BME280;8505;49.456;8.164;2022-12-29T02:07:37;99052.56;;;11.30;76.11
16777;BME280;8505;49.456;8.164;2022-12-29T02:10:06;99048.88;;;11.31;76.14
16777;BME280;8505;49.456;8.164;2022-12-29T02:12:34;99065.19;;;11.28;76.55
16777;BME280;8505;49.456;8.164;2022-12-29T02:15:03;99057.25;;;11.28;76.81
16777;BME280;8505;49.456;8.164;2022-12-29T02:17:43;99059.44;;;11.25;77.22
16777;BME280;8505;49.456;8.164;2022-12-29T02:20:30;99059.03;;;11.21;77.44
16777;BME280;8505;49.456;8.164;2022-12-29T02:23:25;99037.81;;;11.21;77.49
16777;BME280;8505;49.456;8.164;2022-12-29T02:26:17;99050.44;;;11.19;77.54
16777;BME280;8505;49.456;8.164;2022-12-29T02:32:03;99014.16;;;11.20;77.14
16777;BME280;8505;49.456;8.164;2022-12-29T02:34:40;99020.03;;;11.15;77.33
16777;BME280;8505;49.456;8.164;2022-12-29T02:37:20;99014.16;;;11.20;76.55
16777;BME280;8505;49.456;8.164;2022-12-29T02:39:56;99016.22;;;11.24;76.27
16777;BME280;8505;49.456;8.164;2022-12-29T02:42:34;99006.66;;;11.30;76.00
16777;BME280;8505;49.456;8.164;2022-12-29T02:45:05;99000.72;;;11.21;76.25
16777;BME280;8505;49.456;8.164;2022-12-29T02:47:39;99025.81;;;11.25;75.90
16777;BME280;8505;49.456;8.164;2022-12-29T02:50:14;99008.50;;;11.29;75.69
16777;BME280;8505;49.456;8.164;2022-12-29T02:52:47;98987.09;;;11.31;75.24
16777;BME280;8505;49.456;8.164;2022-12-29T02:55:17;98994.72;;;11.41;74.49
16777;BME280;8505;49.456;8.164;2022-12-29T02:57:44;98984.94;;;11.41;74.21
16777;BME280;8505;49.456;8.164;2022-12-29T03:00:14;98992.44;;;11.38;74.35
16777;BME280;8505;49.456;8.164;2022-12-29T03:03:06;98975.53;;;11.39;74.00
16777;BME280;8505;49.456;8.164;2022-12-29T03:05:55;98958.66;;;11.46;73.10
16777;BME280;8505;49.456;8.164;2022-12-29T03:08:32;98961.75;;;11.56;72.39
16777;BME280;8505;49.456;8.164;2022-12-29T03:11:03;98963.56;;;11.49;72.41
16777;BME280;8505;49.456;8.164;2022-12-29T03:13:37;98959.72;;;11.52;72.20
16777;BME280;8505;49.456;8.164;2022-12-29T03:16:29;98967.66;;;11.52;71.69
16777;BME280;8505;49.456;8.164;2022-12-29T03:19:04;98967.84;;;11.50;71.89
16777;BME280;8505;49.456;8.164;2022-12-29T03:21:38;98960.09;;;11.49;71.85
16777;BME280;8505;49.456;8.164;2022-12-29T03:24:27;98957.31;;;11.63;70.75
16777;BME280;8505;49.456;8.164;2022-12-29T03:26:58;98946.91;;;11.62;70.76
16777;BME280;8505;49.456;8.164;2022-12-29T03:29:28;98942.22;;;11.64;70.73
16777;BME280;8505;49.456;8.164;2022-12-29T03:31:59;98921.78;;;11.58;71.17
16777;BME280;8505;49.456;8.164;2022-12-29T03:34:30;98914.22;;;11.55;71.16
16777;BME280;8505;49.456;8.164;2022-12-29T03:37:01;98925.25;;;11.58;70.58
16777;BME280;8505;49.456;8.164;2022-12-29T03:39:30;98933.63;;;11.62;70.52
16777;BME280;8505;49.456;8.164;2022-12-29T03:42:01;98930.94;;;11.55;70.88
16777;BME280;8505;49.456;8.164;2022-12-29T03:44:35;98943.97;;;11.50;71.16
16777;BME280;8505;49.456;8.164;2022-12-29T03:47:03;98926.66;;;11.48;71.23
16777;BME280;8505;49.456;8.164;2022-12-29T03:49:33;98940.13;;;11.53;71.10
16777;BME280;8505;49.456;8.164;2022-12-29T03:52:01;98933.56;;;11.49;71.17
16777;BME280;8505;49.456;8.164;2022-12-29T03:54:29;98946.22;;;11.47;71.34
16777;BME280;8505;49.456;8.164;2022-12-29T03:56:57;98962.69;;;11.42;71.54
16777;BME280;8505;49.456;8.164;2022-12-29T03:59:24;98975.56;;;11.45;71.56
16777;BME280;8505;49.456;8.164;2022-12-29T04:01:52;98966.03;;;11.51;71.04
16777;BME280;8505;49.456;8.164;2022-12-29T04:04:20;98951.13;;;11.50;71.16
16777;BME280;8505;49.456;8.164;2022-12-29T04:06:49;98961.34;;;11.53;71.22
16777;BME280;8505;49.456;8.164;2022-12-29T04:09:16;98970.31;;;11.52;71.66
16777;BME280;8505;49.456;8.164;2022-12-29T04:11:44;98975.63;;;11.52;71.88
16777;BME280;8505;49.456;8.164;2022-12-29T04:14:12;98958.09;;;11.57;71.37
16777;BME280;8505;49.456;8.164;2022-12-29T04:16:40;98975.22;;;11.55;71.94
16777;BME280;8505;49.456;8.164;2022-12-29T04:19:08;98943.16;;;11.50;72.80
16777;BME280;8505;49.456;8.164;2022-12-29T04:21:35;98964.16;;;11.45;73.32
16777;BME280;8505;49.456;8.164;2022-12-29T04:24:05;98951.09;;;11.43;73.74
16777;BME280;8505;49.456;8.164;2022-12-29T04:26:33;98949.44;;;11.35;74.16
16777;BME280;8505;49.456;8.164;2022-12-29T04:29:01;98948.22;;;11.38;73.57
16777;BME280;8505;49.456;8.164;2022-12-29T04:31:29;98955.97;;;11.40;73.54
16777;BME280;8505;49.456;8.164;2022-12-29T04:33:56;98949.81;;;11.32;73.96
16777;BME280;8505;49.456;8.164;2022-12-29T04:36:26;98946.16;;;11.33;73.83
16777;BME280;8505;49.456;8.164;2022-12-29T04:38:56;98939.88;;;11.41;73.37
16777;BME280;8505;49.456;8.164;2022-12-29T04:41:25;98932.66;;;11.28;73.78
16777;BME280;8505;49.456;8.164;2022-12-29T04:43:53;98932.94;;;11.40;73.06
16777;BME280;8505;49.456;8.164;2022-12-29T04:46:20;98945.38;;;11.40;72.95
16777;BME280;8505;49.456;8.164;2022-12-29T04:48:48;98937.59;;;11.38;72.98
16777;BME280;8505;49.456;8.164;2022-12-29T04:51:16;98939.47;;;11.44;72.36
16777;BME280;8505;49.456;8.164;2022-12-29T04:53:43;98940.28;;;11.45;72.35
16777;BME280;8505;49.456;8.164;2022-12-29T04:56:11;98936.44;;;11.47;72.11
16777;BME280;8505;49.456;8.164;2022-12-29T04:58:41;98942.56;;;11.48;72.12
16777;BME280;8505;49.456;8.164;2022-12-29T05:01:08;98942.56;;;11.54;71.59
16777;BME280;8505;49.456;8.164;2022-12-29T05:03:36;98945.00;;;11.49;71.86
16777;BME280;8505;49.456;8.164;2022-12-29T05:06:04;98926.91;;;11.59;71.30
16777;BME280;8505;49.456;8.164;2022-12-29T05:08:32;98951.78;;;11.58;71.25
16777;BME280;8505;49.456;8.164;2022-12-29T05:11:00;98937.28;;;11.61;70.98
16777;BME280;8505;49.456;8.164;2022-12-29T05:13:28;98936.09;;;11.63;70.71
16777;BME280;8505;49.456;8.164;2022-12-29T05:15:57;98955.66;;;11.62;70.84
16777;BME280;8505;49.456;8.164;2022-12-29T05:18:24;98938.13;;;11.61;70.98
16777;BME280;8505;49.456;8.164;2022-12-29T05:20:52;98950.59;;;11.67;70.56
16777;BME280;8505;49.456;8.164;2022-12-29T05:23:20;98946.78;;;11.77;69.86
16777;BME280;8505;49.456;8.164;2022-12-29T05:25:48;98948.22;;;11.79;69.83
16777;BME280;8505;49.456;8.164;2022-12-29T05:28:15;98954.78;;;11.83;69.27
16777;BME280;8505;49.456;8.164;2022-12-29T05:30:44;98928.03;;;11.78;69.74
16777;BME280;8505;49.456;8.164;2022-12-29T05:33:13;98936.81;;;11.79;69.52
16777;BME280;8505;49.456;8.164;2022-12-29T05:35:40;98963.94;;;11.81;69.44
16777;BME280;8505;49.456;8.164;2022-12-29T05:38:08;98948.09;;;12.00;68.52
16777;BME280;8505;49.456;8.164;2022-12-29T05:40:36;98945.59;;;11.92;68.92
16777;BME280;8505;49.456;8.164;2022-12-29T05:43:03;98952.56;;;11.93;68.71
16777;BME280;8505;49.456;8.164;2022-12-29T05:45:31;98951.13;;;11.97;68.56
16777;BME280;8505;49.456;8.164;2022-12-29T05:47:59;98948.06;;;11.94;68.69
16777;BME280;8505;49.456;8.164;2022-12-29T05:50:28;98953.97;;;11.89;69.19
16777;BME280;8505;49.456;8.164;2022-12-29T05:52:55;98952.13;;;11.83;69.59
16777;BME280;8505;49.456;8.164;2022-12-29T05:55:23;98937.81;;;11.78;70.06
16777;BME280;8505;49.456;8.164;2022-12-29T05:57:51;98948.63;;;11.76;70.14
16777;BME280;8505;49.456;8.164;2022-12-29T06:00:18;98943.94;;;11.78;70.02
16777;BME280;8505;49.456;8.164;2022-12-29T06:02:46;98952.47;;;11.73;70.14
16777;BME280;8505;49.456;8.164;2022-12-29T06:05:14;98942.34;;;11.84;69.36
16777;BME280;8505;49.456;8.164;2022-12-29T06:07:43;98943.19;;;11.91;68.85
16777;BME280;8505;49.456;8.164;2022-12-29T06:10:11;98958.50;;;11.95;68.34
16777;BME280;8505;49.456;8.164;2022-12-29T06:12:39;98947.06;;;12.01;67.69
16777;BME280;8505;49.456;8.164;2022-12-29T06:15:07;98953.00;;;12.03;67.67
16777;BME280;8505;49.456;8.164;2022-12-29T06:17:35;98948.91;;;12.01;67.79
16777;BME280;8505;49.456;8.164;2022-12-29T06:20:03;98947.28;;;12.00;67.82
16777;BME280;8505;49.456;8.164;2022-12-29T06:22:30;98921.72;;;11.92;67.88
16777;BME280;8505;49.456;8.164;2022-12-29T06:24:59;98937.28;;;12.02;67.08
16777;BME280;8505;49.456;8.164;2022-12-29T06:27:31;98933.81;;;12.01;67.34
16777;BME280;8505;49.456;8.164;2022-12-29T06:29:59;98937.09;;;12.03;66.89
16777;BME280;8505;49.456;8.164;2022-12-29T06:32:27;98944.25;;;12.09;66.59
16777;BME280;8505;49.456;8.164;2022-12-29T06:34:54;98932.38;;;12.05;66.81
16777;BME280;8505;49.456;8.164;2022-12-29T06:37:22;98941.59;;;12.09;66.28
16777;BME280;8505;49.456;8.164;2022-12-29T06:39:50;98953.25;;;12.15;66.06
16777;BME280;8505;49.456;8.164;2022-12-29T06:42:19;98925.66;;;12.23;65.65
16777;BME280;8505;49.456;8.164;2022-12-29T06:44:46;98927.13;;;12.25;65.62
16777;BME280;8505;49.456;8.164;2022-12-29T06:47:14;98930.16;;;12.22;65.23
16777;BME280;8505;49.456;8.164;2022-12-29T06:49:41;98919.97;;;12.32;65.00
16777;BME280;8505;49.456;8.164;2022-12-29T06:52:09;98904.69;;;12.34;64.95
16777;BME280;8505;49.456;8.164;2022-12-29T06:54:38;98916.31;;;12.33;64.66
16777;BME280;8505;49.456;8.164;2022-12-29T06:57:06;98916.72;;;12.37;64.55
16777;BME280;8505;49.456;8.164;2022-12-29T06:59:35;98936.34;;;12.49;63.32
16777;BME280;8505;49.456;8.164;2022-12-29T07:02:03;98941.84;;;12.54;62.81
16777;BME280;8505;49.456;8.164;2022-12-29T07:04:31;98917.13;;;12.53;62.82
16777;BME280;8505;49.456;8.164;2022-12-29T07:06:59;98927.56;;;12.55;62.70
16777;BME280;8505;49.456;8.164;2022-12-29T07:09:27;98928.19;;;12.64;62.17
16777;BME280;8505;49.456;8.164;2022-12-29T07:11:54;98931.84;;;12.69;61.96
16777;BME280;8505;49.456;8.164;2022-12-29T07:14:22;98947.78;;;12.69;62.00
16777;BME280;8505;49.456;8.164;2022-12-29T07:16:51;98939.81;;;12.69;62.16
16777;BME280;8505;49.456;8.164;2022-12-29T07:19:19;98931.22;;;12.67;62.50
16777;BME280;8505;49.456;8.164;2022-12-29T07:21:46;98924.91;;;12.68;62.52
16777;BME280;8505;49.456;8.164;2022-12-29T07:24:14;98929.38;;;12.68;62.79
16777;BME280;8505;49.456;8.164;2022-12-29T07:26:42;98916.72;;;12.70;62.13
16777;BME280;8505;49.456;8.164;2022-12-29T07:29:10;98929.38;;;12.68;63.04
16777;BME280;8505;49.456;8.164;2022-12-29T07:31:37;98932.03;;;12.61;64.55
16777;BME280;8505;49.456;8.164;2022-12-29T07:34:07;98926.94;;;12.60;64.66
16777;BME280;8505;49.456;8.164;2022-12-29T07:36:35;98934.69;;;12.61;63.94
16777;BME280;8505;49.456;8.164;2022-12-29T07:39:03;98938.38;;;12.67;62.92
16777;BME280;8505;49.456;8.164;2022-12-29T07:41:30;98918.38;;;12.77;62.49
16777;BME280;8505;49.456;8.164;2022-12-29T07:43:58;98942.28;;;12.71;62.95
16777;BME280;8505;49.456;8.164;2022-12-29T07:46:26;98942.88;;;12.66;63.00
16777;BME280;8505;49.456;8.164;2022-12-29T07:49:15;98940.00;;;12.68;63.06
16777;BME280;8505;49.456;8.164;2022-12-29T07:51:43;98940.63;;;12.70;63.01
16777;BME280;8505;49.456;8.164;2022-12-29T07:54:10;98946.34;;;12.73;62.95
16777;BME280;8505;49.456;8.164;2022-12-29T07:56:38;98953.94;;;12.76;62.73
16777;BME280;8505;49.456;8.164;2022-12-29T07:59:06;98956.78;;;12.81;62.57
16777;BME280;8505;49.456;8.164;2022-12-29T08:01:34;98956.16;;;12.79;62.37
16777;BME280;8505;49.456;8.164;2022-12-29T08:04:02;98945.13;;;12.82;62.47
16777;BME280;8505;49.456;8.164;2022-12-29T08:06:32;98957.16;;;12.85;62.31
16777;BME280;8505;49.456;8.164;2022-12-29T08:08:59;98972.72;;;12.88;62.31
16777;BME280;8505;49.456;8.164;2022-12-29T08:11:38;98964.75;;;12.88;62.59
16777;BME280;8505;49.456;8.164;2022-12-29T08:14:06;98965.56;;;12.88;62.65
16777;BME280;8505;49.456;8.164;2022-12-29T08:16:34;98967.41;;;12.81;64.47
16777;BME280;8505;49.456;8.164;2022-12-29T08:19:02;98984.16;;;12.62;65.63
16777;BME280;8505;49.456;8.164;2022-12-29T08:21:32;98978.00;;;12.55;66.73
16777;BME280;8505;49.456;8.164;2022-12-29T08:24:00;98989.44;;;12.49;66.78
16777;BME280;8505;49.456;8.164;2022-12-29T08:26:27;98989.25;;;12.44;67.09
16777;BME280;8505;49.456;8.164;2022-12-29T08:28:55;98985.97;;;12.48;66.82
16777;BME280;8505;49.456;8.164;2022-12-29T08:31:23;98981.28;;;12.44;67.09
16777;BME280;8505;49.456;8.164;2022-12-29T08:33:51;98977.63;;;12.51;66.54
16777;BME280;8505;49.456;8.164;2022-12-29T08:36:18;98978.00;;;12.55;66.47
16777;BME280;8505;49.456;8.164;2022-12-29T08:38:48;98990.69;;;12.60;66.06
16777;BME280;8505;49.456;8.164;2022-12-29T08:41:15;98995.16;;;12.59;66.08
16777;BME280;8505;49.456;8.164;2022-12-29T08:43:45;98996.41;;;12.63;66.29
16777;BME280;8505;49.456;8.164;2022-12-29T08:46:13;98993.94;;;12.55;66.97
16777;BME280;8505;49.456;8.164;2022-12-29T08:48:41;99002.34;;;12.52;67.13
16777;BME280;8505;49.456;8.164;2022-12-29T08:51:09;99006.19;;;12.43;68.96
16777;BME280;8505;49.456;8.164;2022-12-29T08:53:36;99001.06;;;12.35;69.28
16777;BME280;8505;49.456;8.164;2022-12-29T08:56:06;99006.97;;;12.30;69.09
16777;BME280;8505;49.456;8.164;2022-12-29T08:58:35;99013.09;;;12.31;68.95
16777;BME280;8505;49.456;8.164;2022-12-29T09:01:03;99002.50;;;12.37;68.22
16777;BME280;8505;49.456;8.164;2022-12-29T09:03:31;99000.47;;;12.39;68.16
16777;BME280;8505;49.456;8.164;2022-12-29T09:06:19;99016.19;;;12.41;68.24
16777;BME280;8505;49.456;8.164;2022-12-29T09:08:46;98999.22;;;12.42;67.73
16777;BME280;8505;49.456;8.164;2022-12-29T09:11:18;99008.44;;;12.46;67.46
16777;BME280;8505;49.456;8.164;2022-12-29T09:13:46;99009.03;;;12.48;67.93
16777;BME280;8505;49.456;8.164;2022-12-29T09:16:14;99017.25;;;12.46;67.72
16777;BME280;8505;49.456;8.164;2022-12-29T09:18:42;99031.72;;;12.44;68.02
16777;BME280;8505;49.456;8.164;2022-12-29T09:21:11;99020.69;;;12.40;68.12
16777;BME280;8505;49.456;8.164;2022-12-29T09:23:39;99026.41;;;12.44;68.04
16777;BME280;8505;49.456;8.164;2022-12-29T09:26:08;99018.84;;;12.41;67.89
16777;BME280;8505;49.456;8.164;2022-12-29T09:28:37;99025.56;;;12.30;70.54
16777;BME280;8505;49.456;8.164;2022-12-29T09:31:05;99046.75;;;12.17;71.13
16777;BME280;8505;49.456;8.164;2022-12-29T09:33:33;99046.53;;;12.12;71.05
16777;BME280;8505;49.456;8.164;2022-12-29T09:36:01;99038.75;;;12.10;70.76
16777;BME280;8505;49.456;8.164;2022-12-29T09:38:29;99023.47;;;12.12;70.77
16777;BME280;8505;49.456;8.164;2022-12-29T09:41:01;99033.28;;;12.19;70.72
16777;BME280;8505;49.456;8.164;2022-12-29T09:43:54;99020.66;;;12.27;69.58
16777;BME280;8505;49.456;8.164;2022-12-29T09:46:27;99039.03;;;12.35;69.15
16777;BME280;8505;49.456;8.164;2022-12-29T09:49:06;99045.16;;;12.36;69.07
16777;BME280;8505;49.456;8.164;2022-12-29T09:51:38;99023.75;;;12.44;69.01
16777;BME280;8505;49.456;8.164;2022-12-29T09:54:23;99045.94;;;12.23;70.70
16777;BME280;8505;49.456;8.164;2022-12-29T09:56:52;99060.88;;;12.24;70.86
16777;BME280;8505;49.456;8.164;2022-12-29T09:59:25;99051.88;;;12.25;70.59
16777;BME280;8505;49.456;8.164;2022-12-29T10:01:57;99062.13;;;12.35;70.33
16777;BME280;8505;49.456;8.164;2022-12-29T10:04:32;99049.72;;;12.55;69.78
16777;BME280;8505;49.456;8.164;2022-12-29T10:07:03;99068.34;;;12.62;69.90
16777;BME280;8505;49.456;8.164;2022-12-29T10:10:02;99054.69;;;12.71;69.03
16777;BME280;8505;49.456;8.164;2022-12-29T10:12:46;99044.59;;;12.53;68.78
16777;BME280;8505;49.456;8.164;2022-12-29T10:18:27;99041.38;;;12.58;68.79
16777;BME280;8505;49.456;8.164;2022-12-29T10:21:05;99058.91;;;12.59;68.37
16777;BME280;8505;49.456;8.164;2022-12-29T10:23:39;99058.13;;;12.59;67.76
16777;BME280;8505;49.456;8.164;2022-12-29T10:26:11;99062.00;;;12.63;68.23
16777;BME280;8505;49.456;8.164;2022-12-29T10:28:43;99061.00;;;12.70;67.59
16777;BME280;8505;49.456;8.164;2022-12-29T10:31:16;99077.19;;;12.95;66.99
16777;BME280;8505;49.456;8.164;2022-12-29T10:33:49;99083.09;;;12.97;66.59
16777;BME280;8505;49.456;8.164;2022-12-29T10:36:21;99067.16;;;13.10;66.13
16777;BME280;8505;49.456;8.164;2022-12-29T10:38:58;99086.19;;;13.07;65.48
16777;BME280;8505;49.456;8.164;2022-12-29T10:41:36;99074.72;;;12.93;65.38
16777;BME280;8505;49.456;8.164;2022-12-29T10:44:09;99093.72;;;12.77;66.17
16777;BME280;8505;49.456;8.164;2022-12-29T10:46:41;99078.38;;;12.73;66.59
16777;BME280;8505;49.456;8.164;2022-12-29T10:49:14;99065.50;;;12.70;67.17
16777;BME280;8505;49.456;8.164;2022-12-29T10:51:48;99099.81;;;12.58;68.77
16777;BME280;8505;49.456;8.164;2022-12-29T10:54:22;99081.53;;;12.42;68.26
16777;BME280;8505;49.456;8.164;2022-12-29T10:56:52;99094.59;;;12.37;69.94
16777;BME280;8505;49.456;8.164;2022-12-29T10:59:24;99085.19;;;12.28;69.94
16777;BME280;8505;49.456;8.164;2022-12-29T11:02:00;99094.31;;;12.19;71.04
16777;BME280;8505;49.456;8.164;2022-12-29T11:04:40;99097.91;;;12.39;71.44
16777;BME280;8505;49.456;8.164;2022-12-29T11:07:11;99103.84;;;12.47;71.30
16777;BME280;8505;49.456;8.164;2022-12-29T11:09:43;99104.84;;;12.40;70.44
16777;BME280;8505;49.456;8.164;2022-12-29T11:12:19;99092.88;;;12.70;69.98
16777;BME280;8505;49.456;8.164;2022-12-29T11:14:47;99091.25;;;12.76;69.34
16777;BME280;8505;49.456;8.164;2022-12-29T11:17:16;99099.84;;;12.71;70.26
16777;BME280;8505;49.456;8.164;2022-12-29T11:19:45;99092.69;;;12.65;68.78
16777;BME280;8505;49.456;8.164;2022-12-29T11:22:18;99104.50;;;12.63;68.37
16777;BME280;8505;49.456;8.164;2022-12-29T11:24:49;99100.41;;;12.60;68.05
16777;BME280;8505;49.456;8.164;2022-12-29T11:27:18;99108.59;;;12.59;68.27
16777;BME280;8505;49.456;8.164;2022-12-29T11:29:46;99118.94;;;12.47;69.19
16777;BME280;8505;49.456;8.164;2022-12-29T11:32:20;99109.13;;;12.41;69.81
16777;BME280;8505;49.456;8.164;2022-12-29T11:34:54;99106.22;;;12.29;71.24
16777;BME280;8505;49.456;8.164;2022-12-29T11:37:26;99114.44;;;12.00;72.18
16777;BME280;8505;49.456;8.164;2022-12-29T11:39:57;99122.06;;;12.09;71.91
16777;BME280;8505;49.456;8.164;2022-12-29T11:42:33;99107.69;;;11.97;71.22
16777;BME280;8505;49.456;8.164;2022-12-29T11:45:05;99108.16;;;12.07;71.48
16777;BME280;8505;49.456;8.164;2022-12-29T11:47:38;99106.19;;;12.23;70.92
16777;BME280;8505;49.456;8.164;2022-12-29T11:50:07;99109.81;;;12.08;70.54
16777;BME280;8505;49.456;8.164;2022-12-29T11:52:36;99104.69;;;12.07;69.79
16777;BME280;8505;49.456;8.164;2022-12-29T11:55:17;99101.06;;;12.14;69.90
16777;BME280;8505;49.456;8.164;2022-12-29T11:57:46;99102.44;;;12.10;68.81
16777;BME280;8505;49.456;8.164;2022-12-29T12:00:16;99103.31;;;12.18;68.83
16777;BME280;8505;49.456;8.164;2022-12-29T12:02:51;99079.84;;;12.21;68.82
16777;BME280;8505;49.456;8.164;2022-12-29T12:05:26;99087.25;;;12.32;67.40
16777;BME280;8505;49.456;8.164;2022-12-29T12:08:03;99090.56;;;12.47;66.84
16777;BME280;8505;49.456;8.164;2022-12-29T12:10:38;99090.69;;;12.93;65.83
16777;BME280;8505;49.456;8.164;2022-12-29T12:13:18;99083.53;;;13.01;64.89
16777;BME280;8505;49.456;8.164;2022-12-29T12:15:51;99097.00;;;12.86;64.84
16777;BME280;8505;49.456;8.164;2022-12-29T12:18:32;99097.75;;;12.60;66.14
16777;BME280;8505;49.456;8.164;2022-12-29T12:21:08;99102.81;;;12.48;66.24
16777;BME280;8505;49.456;8.164;2022-12-29T12:23:44;99091.56;;;12.40;66.54
16777;BME280;8505;49.456;8.164;2022-12-29T12:26:17;99115.22;;;12.35;67.20
16777;BME280;8505;49.456;8.164;2022-12-29T12:28:51;99096.84;;;12.33;67.04
16777;BME280;8505;49.456;8.164;2022-12-29T12:31:33;99097.75;;;12.60;66.88
16777;BME280;8505;49.456;8.164;2022-12-29T12:34:06;99099.13;;;12.43;67.43
16777;BME280;8505;49.456;8.164;2022-12-29T12:36:51;99101.16;;;12.41;67.36
16777;BME280;8505;49.456;8.164;2022-12-29T12:39:27;99105.19;;;12.30;67.33
16777;BME280;8505;49.456;8.164;2022-12-29T12:42:06;99099.41;;;12.13;68.15
16777;BME280;8505;49.456;8.164;2022-12-29T12:44:49;99095.69;;;12.01;67.91
16777;BME280;8505;49.456;8.164;2022-12-29T12:47:40;99108.91;;;11.95;68.75
16777;BME280;8505;49.456;8.164;2022-12-29T12:50:27;99096.25;;;11.90;68.50
16777;BME280;8505;49.456;8.164;2022-12-29T12:56:15;99098.47;;;11.93;67.55
16777;BME280;8505;49.456;8.164;2022-12-29T12:58:52;99093.78;;;11.89;67.74
16777;BME280;8505;49.456;8.164;2022-12-29T13:01:34;99086.06;;;12.00;67.52
16777;BME280;8505;49.456;8.164;2022-12-29T13:04:23;99090.38;;;12.01;67.08
16777;BME280;8505;49.456;8.164;2022-12-29T13:07:04;99084.69;;;12.11;67.05
16777;BME280;8505;49.456;8.164;2022-12-29T13:09:45;99075.69;;;12.05;67.26
16777;BME280;8505;49.456;8.164;2022-12-29T13:12:27;99071.75;;;11.95;67.35
16777;BME280;8505;49.456;8.164;2022-12-29T13:15:08;99062.25;;;11.72;67.10
16777;BME280;8505;49.456;8.164;2022-12-29T13:17:45;99088.06;;;11.64;67.15
16777;BME280;8505;49.456;8.164;2022-12-29T13:20:22;99070.81;;;11.74;66.29
16777;BME280;8505;49.456;8.164;2022-12-29T13:22:57;99082.13;;;11.62;66.06
16777;BME280;8505;49.456;8.164;2022-12-29T13:25:34;99078.88;;;11.60;66.22
16777;BME280;8505;49.456;8.164;2022-12-29T13:28:06;99077.63;;;11.56;67.95
16777;BME280;8505;49.456;8.164;2022-12-29T13:30:44;99072.72;;;11.53;68.10
16777;BME280;8505;49.456;8.164;2022-12-29T13:33:22;99081.16;;;11.35;68.86
16777;BME280;8505;49.456;8.164;2022-12-29T13:35:59;99089.66;;;11.30;69.08
16777;BME280;8505;49.456;8.164;2022-12-29T13:38:34;99088.53;;;11.18;69.09
16777;BME280;8505;49.456;8.164;2022-12-29T13:41:06;99099.91;;;11.12;70.11
16777;BME280;8505;49.456;8.164;2022-12-29T13:43:37;99086.66;;;11.12;69.01